Flight Track Log - Related Links

Times and Time Zones

All times are in EDT time to prevent confusion due to time zone crossing. See the DAL1426 flight status page for this flight to view local times or setup timezone preferences in your user account.


Time Position Orientation Groundspeed Altitude Reporting Facility
EDT Latitude Longitude Course Direction KTS MPH feet Rate Location/Type
Thu 10:34:51 PM 33.6500 -84.3167 76° East 238 274 3,800  Level Atlanta TRACON
Thu 10:35:51 PM 33.6667 -84.2333 76° East 269 310 7,300 2,150 Climbing Atlanta TRACON
Thu 10:37:44 PM 33.8047 -84.1789 18° North 253 291 10,000 1,145 Climbing Atlanta Center
Thu 10:38:44 PM 33.9028 -84.2317 336° Northwest 315 362 10,600 1,500 Climbing Atlanta Center
Thu 10:39:44 PM 33.9733 -84.3369 309° West 345 397 13,000 2,400 Climbing Atlanta Center
Thu 10:40:44 PM 34.0336 -84.4525 302° West 402 463 15,400 2,050 Climbing Atlanta Center
Thu 10:41:44 PM 34.1083 -84.5506 313° West 402 463 17,100 1,800 Climbing Atlanta Center
Thu 10:42:44 PM 34.2019 -84.6492 319° Northwest 426 490 19,000 1,800 Climbing Atlanta Center
Thu 10:43:44 PM 34.3036 -84.7353 325° Northwest 434 499 20,700 1,700 Climbing Atlanta Center
Thu 10:44:44 PM 34.4264 -84.7867 341° North 453 521 22,400 1,550 Climbing Atlanta Center
Thu 10:45:44 PM 34.5514 -84.8433 340° North 463 533 23,800 1,450 Climbing Atlanta Center
Thu 10:46:44 PM 34.6761 -84.8975 340° North 468 539 25,300 1,400 Climbing Atlanta Center
Thu 10:47:44 PM 34.8053 -84.9569 339° North 474 545 26,600 1,650 Climbing Atlanta Center
Thu 10:48:44 PM 34.9342 -85.0142 340° North 485 558 28,600 1,800 Climbing Atlanta Center
Thu 10:49:44 PM 35.0608 -85.0717 340° North 485 558 30,200 1,512 Climbing Atlanta Center
Thu 10:50:47 PM 35.1658 -85.1725 322° Northwest 488 562 31,700 1,355 Climbing Memphis Center
Thu 10:51:48 PM 35.2500 -85.3039 308° West 485 558 33,000 1,131 Climbing Memphis Center
Thu 10:52:49 PM 35.3350 -85.4336 309° West 486 559 34,000 492 Climbing Memphis Center
Thu 10:53:50 PM 35.4386 -85.5903 309° West 486 559 34,000  Level Memphis Center
Thu 10:54:51 PM 35.5236 -85.7225 308° West 487 560 34,000  Level Memphis Center
Thu 10:55:52 PM 35.5983 -85.8608 304° West 487 560 34,000  Level Memphis Center
Thu 10:56:53 PM 35.6678 -86.0058 301° West 487 560 34,000  Level Memphis Center
Thu 10:57:54 PM 35.7336 -86.1539 299° West 487 560 34,000  Level Memphis Center
Thu 10:58:55 PM 35.8011 -86.3014 299° West 487 560 34,000  Level Memphis Center
Thu 10:59:57 PM 35.8683 -86.4492 299° West 488 562 34,000  Level Memphis Center
Thu 11:00:58 PM 35.9361 -86.5978 299° West 488 562 34,000  Level Memphis Center
Thu 11:01:59 PM 36.0022 -86.7469 299° West 488 562 34,000  Level Memphis Center
Thu 11:03:00 PM 36.0689 -86.8981 299° West 488 562 34,000  Level Memphis Center
Thu 11:04:01 PM 36.1372 -87.0486 299° West 489 563 34,000  Level Memphis Center
Thu 11:05:02 PM 36.2044 -87.1994 299° West 489 563 34,000  Level Memphis Center
Thu 11:06:03 PM 36.2722 -87.3486 299° West 489 563 34,000  Level Memphis Center
Thu 11:07:04 PM 36.3386 -87.4978 299° West 489 563 34,000  Level Memphis Center
Thu 11:08:05 PM 36.4047 -87.6464 299° West 489 563 34,000  Level Memphis Center
Thu 11:09:06 PM 36.4706 -87.7972 299° West 489 563 34,000  Level Memphis Center
Thu 11:10:07 PM 36.5383 -87.9461 300° West 489 563 34,000  Level Memphis Center
Thu 11:11:08 PM 36.6328 -88.0761 312° West 497 572 34,000  Level Memphis Center
Thu 11:12:09 PM 36.7253 -88.2042 312° West 495 570 34,000 -443 Level Memphis Center
Thu 11:13:10 PM 36.8150 -88.3319 311° West 494 568 33,100 -1,131 Descending Memphis Center
Thu 11:14:11 PM 36.9039 -88.4575 312° West 490 564 31,700 -1,082 Descending Memphis Center
Thu 11:15:12 PM 36.9964 -88.5861 312° West 494 568 30,900 -885 Descending Memphis Center
Thu 11:16:13 PM 37.0889 -88.7156 312° West 497 572 29,900 -1,328 Descending Memphis Center
Thu 11:17:14 PM 37.1756 -88.8406 311° West 485 558 28,200 -1,623 Descending Memphis Center
Thu 11:18:15 PM 37.2606 -88.9636 311° West 474 545 26,600 -1,082 Descending Memphis Center
Thu 11:19:16 PM 37.3464 -89.0872 311° West 472 543 26,000 -379 Descending Memphis Center
Thu 11:19:50 PM 37.4008 -89.1664 311° West 481 554 26,000  Level Kansas City Center
Thu 11:20:51 PM 37.5039 -89.2778 319° Northwest 489 563 26,000 -197 Level Kansas City Center
Thu 11:21:52 PM 37.6144 -89.3767 325° Northwest 489 563 25,600 -1,525 Descending Kansas City Center
Thu 11:22:53 PM 37.7447 -89.4858 326° Northwest 484 557 22,900 -1,918 Descending Kansas City Center
Thu 11:23:54 PM 37.8472 -89.5744 326° Northwest 456 525 21,700 -1,230 Descending Kansas City Center
Thu 11:24:55 PM 37.9461 -89.6583 326° Northwest 431 496 20,400 -1,279 Descending Kansas City Center
Thu 11:25:56 PM 38.0456 -89.7436 326° Northwest 428 493 19,100 -1,339 Descending Kansas City Center
Thu 11:26:56 PM 38.1403 -89.8253 326° Northwest 420 483 17,700 -2,033 Descending Kansas City Center
Thu 11:27:57 PM 38.2375 -89.9186 323° Northwest 406 467 15,000 -2,361 Descending Kansas City Center
Thu 11:28:58 PM 38.3194 -90.0094 319° Northwest 394 453 12,900 -1,770 Descending Kansas City Center
Thu 11:29:59 PM 38.3997 -90.0947 320° Northwest 377 434 11,400 -1,180 Descending Kansas City Center
Thu 11:31:00 PM 38.4653 -90.1628 321° Northwest 347 399 10,500 -885 Descending Kansas City Center
Thu 11:32:01 PM 38.5300 -90.2336 319° Northwest 312 359 9,600 -1,082 Descending Kansas City Center
Thu 11:33:02 PM 38.5925 -90.3019 319° Northwest 302 348 8,300 -1,377 Descending Kansas City Center
Thu 11:34:03 PM 38.6528 -90.3672 320° Northwest 286 329 6,800 -1,131 Descending Kansas City Center
Thu 11:35:04 PM 38.6958 -90.4547 302° West 277 319 6,000 -545 Descending Kansas City Center
Thu 11:36:04 PM 38.7289 -90.5281 300° West 240 276 5,700 -496 Descending Kansas City Center
Thu 11:37:05 PM 38.7608 -90.5986 300° West 231 266 5,000 -885 Descending Kansas City Center
Thu 11:38:06 PM 38.8078 -90.6436 323° Northwest 232 267 3,900 -984 Descending Kansas City Center
Thu 11:39:07 PM 38.8275 -90.5814 68° East 202 232 3,000 -689 Descending Kansas City Center
Thu 11:40:08 PM 38.8125 -90.5181 107° East 186 214 2,500 -639 Descending Kansas City Center
Thu 11:41:09 PM 38.7875 -90.4667 122° Southeast 171 197 1,700 -738 Descending Kansas City Center
Thu 11:42:10 PM 38.7694 -90.4286 121° Southeast 129 148 1,000 -496 Descending Kansas City Center
Thu 11:43:10 PM 38.7475 -90.3847 123° Southeast 128 147 700 -300 Descending Kansas City Center

Login

Don't have an account? Register now (free) for customized features, flight alerts, and more!